createdAt,value
2019-02-28T00:02:28.738Z,96921.94
2019-02-28T00:04:59.070Z,96930.34
2019-02-28T00:07:29.495Z,96923.50
2019-02-28T00:09:59.910Z,96923.50
2019-02-28T00:12:30.405Z,96917.42
2019-02-28T00:15:00.804Z,96914.53
2019-02-28T00:17:31.100Z,96915.17
2019-02-28T00:20:01.508Z,96911.11
2019-02-28T00:22:31.925Z,96917.27
2019-02-28T00:25:04.190Z,96906.21
2019-02-28T00:27:34.473Z,96902.31
2019-02-28T00:30:06.208Z,96898.02
2019-02-28T00:32:37.197Z,96892.53
2019-02-28T00:35:13.012Z,96895.08
2019-02-28T00:37:39.989Z,96889.67
2019-02-28T00:40:10.632Z,96884.73
2019-02-28T00:42:41.064Z,96884.95
2019-02-28T00:45:12.259Z,96881.45
2019-02-28T00:47:42.978Z,96875.03
2019-02-28T00:50:13.908Z,96876.20
2019-02-28T00:52:44.550Z,96870.26
2019-02-28T00:55:15.653Z,96872.30
2019-02-28T00:57:46.211Z,96867.11
2019-02-28T01:00:17.626Z,96859.27
2019-02-28T01:02:52.152Z,96857.41
2019-02-28T01:05:20.471Z,96850.63
2019-02-28T01:07:50.984Z,96854.91
2019-02-28T01:10:21.560Z,96855.95
2019-02-28T01:12:54.383Z,96849.23
2019-02-28T01:15:24.244Z,96844.34
2019-02-28T01:17:57.222Z,96844.13
2019-02-28T01:20:26.708Z,96840.87
2019-02-28T01:22:58.533Z,96836.28
2019-02-28T01:25:29.263Z,96830.75
2019-02-28T01:27:59.717Z,96833.29
2019-02-28T01:30:30.130Z,96823.56
2019-02-28T01:33:00.533Z,96817.36
2019-02-28T01:35:30.932Z,96824.55
2019-02-28T01:38:01.378Z,96820.78
2019-02-28T01:40:31.786Z,96818.83
2019-02-28T01:43:02.165Z,96820.13
2019-02-28T01:45:32.652Z,96816.23
2019-02-28T01:48:03.087Z,96818.13
2019-02-28T01:50:33.515Z,96811.30
2019-02-28T01:53:03.995Z,96812.89
2019-02-28T01:55:34.344Z,96818.08
2019-02-28T01:58:04.862Z,96812.67
2019-02-28T02:00:35.331Z,96805.36
2019-02-28T02:03:05.790Z,96808.56
2019-02-28T02:05:36.337Z,96801.47
2019-02-28T02:08:07.455Z,96801.41
2019-02-28T02:10:37.905Z,96792.59
2019-02-28T02:13:08.297Z,96794.66
2019-02-28T02:15:38.731Z,96791.58
2019-02-28T02:18:10.020Z,96787.34
2019-02-28T02:20:40.665Z,96789.67
2019-02-28T02:23:11.121Z,96786.52
2019-02-28T02:25:41.468Z,96781.01
2019-02-28T02:28:11.871Z,96773.83
2019-02-28T02:30:42.369Z,96766.30
2019-02-28T02:33:14.400Z,96767.15
2019-02-28T02:35:45.052Z,96764.33
2019-02-28T02:38:15.535Z,96757.66
2019-02-28T02:40:46.100Z,96757.66
2019-02-28T02:43:16.539Z,96752.95
2019-02-28T02:45:46.841Z,96755.33
2019-02-28T02:48:17.249Z,96745.91
2019-02-28T02:50:47.768Z,96747.41
2019-02-28T02:53:18.317Z,96739.82
2019-02-28T02:55:48.841Z,96745.83
2019-02-28T02:58:19.111Z,96739.16
2019-02-28T03:00:51.350Z,96734.36
2019-02-28T03:03:21.754Z,96727.40
2019-02-28T03:05:52.222Z,96730.43
2019-02-28T03:08:22.707Z,96717.03
2019-02-28T03:10:53.307Z,96714.78
2019-02-28T03:13:23.688Z,96717.84
2019-02-28T03:15:54.104Z,96716.77
2019-02-28T03:18:24.432Z,96710.34
2019-02-28T03:20:54.945Z,96713.14
2019-02-28T03:23:25.316Z,96712.79
2019-02-28T03:26:14.666Z,96711.73
2019-02-28T03:28:45.052Z,96709.80
2019-02-28T03:31:16.028Z,96709.13
2019-02-28T03:33:46.989Z,96714.31
2019-02-28T03:36:17.562Z,96708.59
2019-02-28T03:38:49.666Z,96705.09
2019-02-28T03:41:19.952Z,96700.25
2019-02-28T03:43:50.250Z,96698.13
2019-02-28T03:46:20.667Z,96701.91
2019-02-28T03:48:51.131Z,96698.67
2019-02-28T03:51:21.417Z,96697.03
2019-02-28T03:53:55.539Z,96686.34
2019-02-28T03:56:24.149Z,96691.53
2019-02-28T03:58:54.795Z,96693.02
2019-02-28T04:01:25.176Z,96692.83
2019-02-28T04:03:55.631Z,96689.47
2019-02-28T04:06:26.067Z,96686.75
2019-02-28T04:08:56.596Z,96683.60
2019-02-28T04:11:30.773Z,96684.90
2019-02-28T04:13:59.489Z,96683.20
2019-02-28T04:16:29.975Z,96682.56
2019-02-28T04:19:00.923Z,96684.41
2019-02-28T04:21:31.514Z,96686.05
2019-02-28T04:24:01.841Z,96672.83
2019-02-28T04:26:32.371Z,96679.71
2019-02-28T04:29:02.732Z,96671.64
2019-02-28T04:31:33.518Z,96673.84
2019-02-28T04:34:04.053Z,96672.80
2019-02-28T04:36:35.835Z,96677.65
2019-02-28T04:39:09.190Z,96679.50
2019-02-28T04:41:39.687Z,96676.09
2019-02-28T04:44:10.083Z,96674.31
2019-02-28T04:46:40.556Z,96664.60
2019-02-28T04:49:11.037Z,96666.59
2019-02-28T04:51:41.390Z,96663.95
2019-02-28T04:54:11.732Z,96667.75
2019-02-28T04:56:42.380Z,96661.08
2019-02-28T04:59:14.144Z,96667.64
2019-02-28T05:01:46.177Z,96664.62
2019-02-28T05:04:16.923Z,96667.63
2019-02-28T05:06:47.342Z,96665.80
2019-02-28T05:09:17.692Z,96663.59
2019-02-28T05:11:48.052Z,96660.14
2019-02-28T05:14:23.487Z,96660.45
2019-02-28T05:16:50.616Z,96664.09
2019-02-28T05:19:21.066Z,96665.33
2019-02-28T05:21:53.552Z,96664.36
2019-02-28T05:24:23.596Z,96653.99
2019-02-28T05:26:53.993Z,96655.98
2019-02-28T05:29:24.381Z,96657.53
2019-02-28T05:31:54.821Z,96662.02
2019-02-28T05:34:25.287Z,96661.49
2019-02-28T05:36:55.750Z,96658.20
2019-02-28T05:39:28.191Z,96659.03
2019-02-28T05:41:58.077Z,96653.44
2019-02-28T05:44:30.326Z,96649.20
2019-02-28T05:47:00.732Z,96660.39
2019-02-28T05:49:31.157Z,96652.84
2019-02-28T05:52:01.637Z,96656.03
2019-02-28T05:54:32.003Z,96658.34
2019-02-28T05:57:04.634Z,96661.27
2019-02-28T05:59:34.531Z,96663.27
2019-02-28T06:02:05.147Z,96658.77
2019-02-28T06:04:37.883Z,96655.55
2019-02-28T06:07:09.431Z,96653.05
2019-02-28T06:09:39.963Z,96656.98
2019-02-28T06:12:10.457Z,96659.92
2019-02-28T06:14:40.865Z,96655.62
2019-02-28T06:17:11.269Z,96659.59
2019-02-28T06:19:43.635Z,96659.44
2019-02-28T06:22:13.902Z,96654.81
2019-02-28T06:24:45.096Z,96659.91
2019-02-28T06:27:16.254Z,96660.31
2019-02-28T06:29:47.879Z,96651.38
2019-02-28T06:32:23.281Z,96650.81
2019-02-28T06:34:50.399Z,96658.04
2019-02-28T06:37:20.848Z,96661.16
2019-02-28T06:39:51.251Z,96665.61
2019-02-28T06:42:21.574Z,96665.39
2019-02-28T06:44:51.944Z,96668.42
2019-02-28T06:47:22.342Z,96666.25
2019-02-28T06:49:52.910Z,96667.94
2019-02-28T06:52:25.206Z,96671.74
2019-02-28T06:54:55.441Z,96663.25
2019-02-28T06:57:26.847Z,96665.66
2019-02-28T06:59:58.042Z,96663.83
2019-02-28T07:02:31.388Z,96670.91
2019-02-28T07:05:00.610Z,96669.85
2019-02-28T07:07:31.039Z,96672.89
2019-02-28T07:10:01.490Z,96679.88
2019-02-28T07:12:33.146Z,96672.20
2019-02-28T07:15:03.613Z,96667.98
2019-02-28T07:17:34.139Z,96667.62
2019-02-28T07:20:05.032Z,96656.36
2019-02-28T07:22:35.517Z,96656.03
2019-02-28T07:25:09.464Z,96654.06
2019-02-28T07:27:38.562Z,96651.14
2019-02-28T07:30:17.511Z,96652.50
2019-02-28T07:32:45.068Z,96647.79
2019-02-28T07:35:15.569Z,96650.89
2019-02-28T07:37:46.084Z,96650.56
2019-02-28T07:40:17.333Z,96647.13
2019-02-28T07:42:48.214Z,96640.92
2019-02-28T07:45:18.735Z,96649.58
2019-02-28T07:47:52.623Z,96636.41
2019-02-28T07:50:21.386Z,96640.80
2019-02-28T07:52:53.202Z,96645.77
2019-02-28T07:55:27.284Z,96644.83
2019-02-28T07:57:56.625Z,96639.34
2019-02-28T08:00:27.270Z,96642.17
2019-02-28T08:02:57.719Z,96641.30
2019-02-28T08:05:30.988Z,96638.99
2019-02-28T08:08:00.246Z,96638.50
2019-02-28T08:10:30.751Z,96644.38
2019-02-28T08:13:03.061Z,96638.59
2019-02-28T08:15:33.508Z,96637.30
2019-02-28T08:18:05.761Z,96638.11
2019-02-28T08:20:36.132Z,96632.13
2019-02-28T08:23:06.574Z,96635.41
2019-02-28T08:25:39.686Z,96629.79
2019-02-28T08:28:09.214Z,96626.92
2019-02-28T08:30:39.734Z,96630.78
2019-02-28T08:33:10.212Z,96626.66
2019-02-28T08:35:41.742Z,96632.20
2019-02-28T08:38:12.169Z,96629.14
2019-02-28T08:40:42.563Z,96626.56
2019-02-28T08:43:13.473Z,96631.92
2019-02-28T08:45:44.529Z,96620.45
2019-02-28T08:48:14.979Z,96618.94
2019-02-28T08:50:45.721Z,96616.83
2019-02-28T08:53:16.798Z,96617.70
2019-02-28T08:55:47.250Z,96601.77
2019-02-28T08:58:17.736Z,96607.67
2019-02-28T09:00:48.167Z,96611.88
2019-02-28T09:03:18.583Z,96607.11
2019-02-28T09:05:49.010Z,96611.01
2019-02-28T09:08:22.483Z,96613.83
2019-02-28T09:10:51.629Z,96606.88
2019-02-28T09:13:22.099Z,96610.52
2019-02-28T09:15:52.446Z,96603.87
2019-02-28T09:18:22.951Z,96592.86
2019-02-28T09:20:53.328Z,96603.56
2019-02-28T09:23:23.839Z,96601.92
2019-02-28T09:25:56.594Z,96590.09
2019-02-28T09:28:26.239Z,96582.95
2019-02-28T09:30:57.049Z,96587.09
2019-02-28T09:33:27.541Z,96581.70
2019-02-28T09:35:58.005Z,96590.96
2019-02-28T09:38:45.259Z,96585.21
2019-02-28T09:41:15.352Z,96593.31
2019-02-28T09:43:45.849Z,96581.35
2019-02-28T09:46:16.437Z,96589.07
2019-02-28T09:48:46.909Z,96586.69
2019-02-28T09:51:17.388Z,96581.17
2019-02-28T09:53:50.278Z,96574.38
2019-02-28T09:56:20.544Z,96563.33
2019-02-28T09:58:51.043Z,96565.91
2019-02-28T10:01:24.506Z,96568.95
2019-02-28T10:03:55.344Z,96569.30
2019-02-28T10:06:26.084Z,96567.88
2019-02-28T10:08:56.516Z,96569.00
2019-02-28T10:11:31.393Z,96571.03
2019-02-28T10:13:59.223Z,96580.09
2019-02-28T10:16:29.651Z,96581.84
2019-02-28T10:19:00.073Z,96580.22
2019-02-28T10:21:33.329Z,96585.00
2019-02-28T10:24:02.452Z,96582.08
2019-02-28T10:26:32.876Z,96567.00
2019-02-28T10:29:04.496Z,96555.00
2019-02-28T10:31:38.339Z,96560.84
2019-02-28T10:34:07.713Z,96557.83
2019-02-28T10:36:38.171Z,96557.55
2019-02-28T10:39:09.753Z,96556.05
2019-02-28T10:41:40.308Z,96552.22
2019-02-28T10:44:10.645Z,96551.89
2019-02-28T10:46:41.088Z,96546.48
2019-02-28T10:49:11.518Z,96549.77
2019-02-28T10:51:44.652Z,96527.17
2019-02-28T10:54:14.555Z,96534.70
2019-02-28T10:56:46.298Z,96522.44
2019-02-28T10:59:16.721Z,96525.13
2019-02-28T11:01:47.357Z,96530.53
2019-02-28T11:04:17.777Z,96525.31
2019-02-28T11:06:48.246Z,96524.09
2019-02-28T11:09:25.117Z,96517.98
2019-02-28T11:11:53.585Z,96521.99
2019-02-28T11:14:24.099Z,96513.68
2019-02-28T11:16:59.098Z,96519.02
2019-02-28T11:19:26.899Z,96514.73
2019-02-28T11:21:57.320Z,96514.45
2019-02-28T11:24:27.847Z,96515.95
2019-02-28T11:26:58.376Z,96510.86
2019-02-28T11:29:28.768Z,96512.48
2019-02-28T11:31:59.432Z,96512.55
2019-02-28T11:34:29.870Z,96503.79
2019-02-28T11:37:00.180Z,96505.41
2019-02-28T11:39:33.650Z,96498.77
2019-02-28T11:42:02.876Z,96500.55
2019-02-28T11:44:36.542Z,96510.02
2019-02-28T11:47:08.329Z,96506.16
2019-02-28T11:49:39.310Z,96505.26
2019-02-28T11:52:11.092Z,96510.98
2019-02-28T11:54:45.227Z,96497.92
2019-02-28T11:57:14.286Z,96490.43
2019-02-28T11:59:44.793Z,96500.16
2019-02-28T12:02:15.391Z,96489.98
2019-02-28T12:04:45.892Z,96491.12
2019-02-28T12:07:16.407Z,96492.20
2019-02-28T12:09:48.122Z,96491.44
2019-02-28T12:12:20.032Z,96485.13
2019-02-28T12:14:53.234Z,96484.20
2019-02-28T12:17:28.602Z,96488.76
2019-02-28T12:19:58.870Z,96484.75
2019-02-28T12:22:29.607Z,96475.64
2019-02-28T12:25:07.648Z,96472.27
2019-02-28T12:27:37.214Z,96467.41
2019-02-28T12:30:18.643Z,96458.11
2019-02-28T12:32:47.032Z,96457.11
2019-02-28T12:35:17.632Z,96444.42
2019-02-28T12:37:48.386Z,96456.47
2019-02-28T12:40:22.518Z,96448.95
2019-02-28T12:42:53.045Z,96448.39
2019-02-28T12:45:30.467Z,96443.75
2019-02-28T12:48:00.961Z,96445.45
2019-02-28T12:50:31.674Z,96451.38
2019-02-28T12:53:02.020Z,96441.48
2019-02-28T12:55:35.482Z,96454.81
2019-02-28T12:58:04.737Z,96446.48
2019-02-28T13:00:40.295Z,96442.55
2019-02-28T13:03:11.110Z,96450.53
2019-02-28T13:05:41.737Z,96443.80
2019-02-28T13:08:12.162Z,96444.93
2019-02-28T13:10:42.679Z,96443.33
2019-02-28T13:13:13.153Z,96428.39
2019-02-28T13:15:45.395Z,96426.02
2019-02-28T13:18:18.154Z,96438.77
2019-02-28T13:20:48.940Z,96423.19
2019-02-28T13:23:22.173Z,96420.45
2019-02-28T13:25:59.201Z,96422.70
2019-02-28T13:28:33.722Z,96414.66
2019-02-28T13:31:04.750Z,96407.22
2019-02-28T13:33:35.840Z,96411.14
2019-02-28T13:36:09.408Z,96409.45
2019-02-28T13:38:39.900Z,96399.70
2019-02-28T13:41:10.420Z,96394.66
2019-02-28T13:43:41.036Z,96390.80
2019-02-28T13:46:13.051Z,96390.23
2019-02-28T13:48:45.564Z,96387.58
2019-02-28T13:51:16.356Z,96386.86
2019-02-28T13:53:47.344Z,96381.73
2019-02-28T13:56:20.674Z,96395.72
2019-02-28T13:58:53.746Z,96391.42
2019-02-28T14:01:23.315Z,96389.00
2019-02-28T14:03:54.033Z,96395.12
2019-02-28T14:06:25.025Z,96397.87
2019-02-28T14:08:56.263Z,96389.35
2019-02-28T14:11:27.555Z,96404.67
2019-02-28T14:13:59.133Z,96394.61
2019-02-28T14:16:29.608Z,96398.17
2019-02-28T14:19:00.082Z,96388.17
2019-02-28T14:21:30.529Z,96390.58
2019-02-28T14:24:01.081Z,96389.15
2019-02-28T14:26:32.629Z,96395.85
2019-02-28T14:29:03.136Z,96401.19
2019-02-28T14:31:33.872Z,96399.47
2019-02-28T14:34:04.332Z,96400.79
2019-02-28T14:36:34.739Z,96398.98
2019-02-28T14:39:09.305Z,96394.55
2019-02-28T14:41:39.942Z,96393.80
2019-02-28T14:44:10.415Z,96379.02
2019-02-28T14:46:40.790Z,96379.53
2019-02-28T14:49:12.468Z,96374.64
2019-02-28T14:51:43.402Z,96384.18
2019-02-28T14:54:13.757Z,96374.89
2019-02-28T14:56:44.221Z,96372.69
2019-02-28T14:59:14.643Z,96375.24
2019-02-28T15:01:45.169Z,96370.12
2019-02-28T15:04:15.580Z,96362.55
2019-02-28T15:06:47.344Z,96368.52
2019-02-28T15:09:19.156Z,96361.86
2019-02-28T15:11:49.676Z,96365.27
2019-02-28T15:14:20.079Z,96365.66
2019-02-28T15:16:50.441Z,96359.38
2019-02-28T15:19:21.374Z,96359.53
2019-02-28T15:21:53.136Z,96357.59
2019-02-28T15:24:23.657Z,96355.45
2019-02-28T15:26:54.183Z,96344.55
2019-02-28T15:29:26.833Z,96355.97
2019-02-28T15:31:56.807Z,96345.72
2019-02-28T15:34:28.876Z,96350.89
2019-02-28T15:37:00.284Z,96346.98
2019-02-28T15:39:30.826Z,96337.20
2019-02-28T15:42:01.167Z,96343.13
2019-02-28T15:44:31.544Z,96334.48
2019-02-28T15:47:01.964Z,96335.00
2019-02-28T15:49:34.350Z,96337.38
2019-02-28T15:52:05.258Z,96335.06
2019-02-28T15:54:36.820Z,96344.17
2019-02-28T15:57:07.348Z,96339.53
2019-02-28T15:59:37.844Z,96340.39
2019-02-28T16:02:08.298Z,96345.62
2019-02-28T16:04:38.706Z,96340.86
2019-02-28T16:07:09.098Z,96335.36
2019-02-28T16:09:39.550Z,96335.83
2019-02-28T16:12:12.508Z,96339.50
2019-02-28T16:14:42.544Z,96337.88
2019-02-28T16:17:13.115Z,96331.19
2019-02-28T16:19:43.468Z,96332.16
2019-02-28T16:22:14.621Z,96326.14
2019-02-28T16:24:46.042Z,96332.63
2019-02-28T16:27:16.537Z,96332.93
2019-02-28T16:29:46.887Z,96337.20
2019-02-28T16:32:17.282Z,96337.95
2019-02-28T16:34:47.596Z,96336.91
2019-02-28T16:37:18.039Z,96335.91
2019-02-28T16:39:49.112Z,96330.18
2019-02-28T16:42:21.572Z,96333.92
2019-02-28T16:44:52.241Z,96335.49
2019-02-28T16:47:24.365Z,96345.62
2019-02-28T16:49:54.891Z,96339.67
2019-02-28T16:52:25.240Z,96343.64
2019-02-28T16:54:56.330Z,96350.67
2019-02-28T16:57:27.360Z,96347.16
2019-02-28T16:59:57.884Z,96350.67
2019-02-28T17:02:29.290Z,96351.66
2019-02-28T17:05:00.561Z,96352.67
2019-02-28T17:07:36.484Z,96365.42
2019-02-28T17:10:10.898Z,96363.95
2019-02-28T17:13:04.132Z,96370.15
2019-02-28T17:15:55.867Z,96372.28
2019-02-28T17:18:26.014Z,96372.70
2019-02-28T17:20:56.580Z,96373.86
2019-02-28T17:23:26.875Z,96379.93
2019-02-28T17:25:57.663Z,96370.73
2019-02-28T17:29:05.486Z,96368.84
2019-02-28T17:31:47.735Z,96375.18
2019-02-28T17:34:23.995Z,96376.16
2019-02-28T17:36:52.081Z,96379.45
2019-02-28T17:39:22.482Z,96381.71
2019-02-28T17:41:53.015Z,96381.23
2019-02-28T17:44:59.532Z,96375.88
2019-02-28T17:47:58.867Z,96376.23
2019-02-28T17:51:10.621Z,96376.89
2019-02-28T17:54:17.319Z,96389.09
2019-02-28T17:57:52.380Z,96385.47
2019-02-28T18:01:25.393Z,96386.81
2019-02-28T18:05:03.766Z,96389.16
2019-02-28T18:08:42.979Z,96396.67
2019-02-28T18:12:23.444Z,96400.93
2019-02-28T18:15:46.950Z,96405.05
2019-02-28T18:19:36.813Z,96405.13
2019-02-28T18:22:26.487Z,96399.66
2019-02-28T18:25:41.887Z,96408.17
2019-02-28T18:29:09.905Z,96404.11
2019-02-28T18:31:41.925Z,96404.33
2019-02-28T18:34:24.370Z,96404.33
2019-02-28T18:36:54.773Z,96397.02
2019-02-28T18:39:25.463Z,96398.33
2019-02-28T18:41:56.086Z,96395.91
2019-02-28T18:44:27.822Z,96401.66
2019-02-28T18:46:58.348Z,96392.94
2019-02-28T18:49:29.399Z,96388.16
2019-02-28T18:52:00.548Z,96390.97
2019-02-28T18:54:31.027Z,96396.94
2019-02-28T18:57:01.441Z,96397.48
2019-02-28T18:59:32.995Z,96400.39
2019-02-28T19:02:03.534Z,96400.27
2019-02-28T19:04:36.557Z,96401.06
2019-02-28T19:07:10.834Z,96399.72
2019-02-28T19:09:41.321Z,96402.91
2019-02-28T19:12:13.836Z,96400.88
2019-02-28T19:14:45.901Z,96403.37
2019-02-28T19:17:17.016Z,96400.47
2019-02-28T19:19:49.076Z,96400.15
2019-02-28T19:22:19.680Z,96402.15
2019-02-28T19:24:50.132Z,96408.88
2019-02-28T19:27:20.660Z,96426.55
2019-02-28T19:29:51.086Z,96423.38
2019-02-28T19:32:21.584Z,96419.56
2019-02-28T19:34:51.977Z,96419.55
2019-02-28T19:37:22.422Z,96415.52
2019-02-28T19:39:54.498Z,96420.08
2019-02-28T19:42:25.802Z,96418.36
2019-02-28T19:44:59.598Z,96420.39
2019-02-28T19:47:29.943Z,96416.52
2019-02-28T19:50:00.443Z,96419.88
2019-02-28T19:52:30.982Z,96415.42
2019-02-28T19:55:01.417Z,96427.88
2019-02-28T19:57:32.142Z,96420.34
2019-02-28T20:00:02.621Z,96424.63
2019-02-28T20:02:34.310Z,96432.42
2019-02-28T20:05:07.748Z,96442.06
2019-02-28T20:07:41.064Z,96433.89
2019-02-28T20:10:17.297Z,96434.80
2019-02-28T20:12:49.089Z,96442.09
2019-02-28T20:15:21.378Z,96436.27
2019-02-28T20:17:51.759Z,96451.38
2019-02-28T20:20:23.396Z,96449.16
2019-02-28T20:22:56.556Z,96447.52
2019-02-28T20:25:30.107Z,96447.09
2019-02-28T20:28:00.569Z,96441.33
2019-02-28T20:30:32.860Z,96447.27
2019-02-28T20:33:03.323Z,96450.67
2019-02-28T20:35:33.889Z,96443.84
2019-02-28T20:38:04.404Z,96447.93
2019-02-28T20:40:34.856Z,96441.99
2019-02-28T20:43:05.663Z,96443.89
2019-02-28T20:45:36.003Z,96447.61
2019-02-28T20:48:06.453Z,96446.02
2019-02-28T20:50:40.840Z,96455.81
2019-02-28T20:53:11.262Z,96459.42
2019-02-28T20:55:41.636Z,96465.86
2019-02-28T20:58:11.936Z,96465.50
2019-02-28T21:00:42.323Z,96464.81
2019-02-28T21:03:12.868Z,96472.97
2019-02-28T21:05:43.317Z,96465.58
2019-02-28T21:08:13.701Z,96483.83
2019-02-28T21:10:44.197Z,96479.30
2019-02-28T21:13:14.589Z,96487.85
2019-02-28T21:15:45.080Z,96488.30
2019-02-28T21:18:15.587Z,96489.87
2019-02-28T21:20:46.007Z,96490.86
2019-02-28T21:23:16.464Z,96484.12
2019-02-28T21:25:46.812Z,96492.99
2019-02-28T21:28:17.437Z,96489.49
2019-02-28T21:30:47.826Z,96494.08
2019-02-28T21:33:18.304Z,96497.02
2019-02-28T21:35:48.853Z,96498.06
2019-02-28T21:38:19.307Z,96499.83
2019-02-28T21:40:49.723Z,96503.08
2019-02-28T21:43:20.188Z,96499.52
2019-02-28T21:45:50.670Z,96503.42
2019-02-28T21:48:21.075Z,96523.03
2019-02-28T21:50:51.416Z,96529.17
2019-02-28T21:53:21.839Z,96531.41
2019-02-28T21:55:52.251Z,96535.41
2019-02-28T21:58:22.665Z,96536.08
2019-02-28T22:00:53.143Z,96536.22
2019-02-28T22:03:23.530Z,96531.22
2019-02-28T22:05:53.878Z,96538.38
2019-02-28T22:08:24.240Z,96543.63
2019-02-28T22:10:54.678Z,96540.19
2019-02-28T22:13:24.994Z,96546.89
2019-02-28T22:15:55.398Z,96537.25
2019-02-28T22:18:25.748Z,96537.81
2019-02-28T22:20:56.211Z,96551.88
2019-02-28T22:23:28.262Z,96548.06
2019-02-28T22:25:58.648Z,96548.55
2019-02-28T22:28:29.141Z,96553.77
2019-02-28T22:31:27.141Z,96558.77
2019-02-28T22:34:12.423Z,96542.32
2019-02-28T22:36:44.838Z,96535.44
2019-02-28T22:39:15.246Z,96536.14
2019-02-28T22:41:45.542Z,96543.38
2019-02-28T22:44:15.819Z,96540.50
2019-02-28T22:46:46.299Z,96541.84
2019-02-28T22:49:16.719Z,96541.48
2019-02-28T22:51:47.045Z,96540.99
2019-02-28T22:54:17.495Z,96534.20
2019-02-28T22:56:47.970Z,96532.64
2019-02-28T22:59:18.358Z,96521.30
2019-02-28T23:01:49.059Z,96517.92
2019-02-28T23:04:19.431Z,96517.64
2019-02-28T23:06:49.771Z,96525.23
2019-02-28T23:09:20.325Z,96511.55
2019-02-28T23:11:50.779Z,96505.27
2019-02-28T23:14:21.185Z,96507.54
2019-02-28T23:16:51.534Z,96503.67
2019-02-28T23:19:21.951Z,96500.52
2019-02-28T23:21:52.219Z,96493.19
2019-02-28T23:24:22.623Z,96490.81
2019-02-28T23:27:12.773Z,96498.92
2019-02-28T23:30:32.676Z,96494.53
2019-02-28T23:33:07.942Z,96497.50
2019-02-28T23:35:44.871Z,96494.13
2019-02-28T23:38:15.435Z,96502.25
2019-02-28T23:40:46.073Z,96501.99
2019-02-28T23:43:16.603Z,96508.87
2019-02-28T23:45:47.500Z,96507.23
2019-02-28T23:48:18.131Z,96514.11
2019-02-28T23:50:48.463Z,96500.04
2019-02-28T23:53:18.964Z,96502.34
2019-02-28T23:55:49.447Z,96502.66
2019-02-28T23:58:19.956Z,96498.73
